This is the latest recevied weather packets stored in our database for station/object DH1NAI-6. If no packets are shown the sender has not sent any weather packets the latest 10 day(s).
| Time | Temp. | Humidity | Pressure | Rain* | Wind** | Luminosity | Snow |
|---|---|---|---|---|---|---|---|
| 1787598119 | 13.89° C | 81% | 1016.4 hPa | 0 mm | - | 0 W/m² | - |
| 1787597493 | 13.89° C | 80% | 1016.3 hPa | 0 mm | - | 0 W/m² | - |
| 1787596887 | 13.89° C | 80% | 1016.3 hPa | 0 mm | - | 0 W/m² | - |
| 1787596262 | 14.44° C | 78% | 1016.4 hPa | 0 mm | - | 0 W/m² | - |
| 1787595654 | 14.44° C | 78% | 1016.3 hPa | 0 mm | - | 0 W/m² | - |
| 1787595047 | 14.44° C | 78% | 1016.4 hPa | 0 mm | - | 0 W/m² | - |
| 1787594438 | 15° C | 77% | 1016.7 hPa | 0 mm | - | 1 W/m² | - |
| 1787593830 | 15° C | 77% | 1016.7 hPa | 0 mm | - | 2 W/m² | - |
| 1787593222 | 15.56° C | 75% | 1016.6 hPa | 0 mm | - | 4 W/m² | - |
| 1787592615 | 15.56° C | 75% | 1016.7 hPa | 0 mm | - | 7 W/m² | - |
| 1787592007 | 16.11° C | 74% | 1016.7 hPa | 0 mm | - | 10 W/m² | - |
| 1787591399 | 16.11° C | 72% | 1016.5 hPa | 0 mm | - | 12 W/m² | - |
| 1787590791 | 16.67° C | 71% | 1016.7 hPa | 0 mm | - | 16 W/m² | - |
| 1787590183 | 16.67° C | 70% | 1016.9 hPa | 0 mm | - | 20 W/m² | - |
| 1787589575 | 17.22° C | 69% | 1016.9 hPa | 0 mm | - | 23 W/m² | - |
| 1787588967 | 17.22° C | 69% | 1016.6 hPa | 0 mm | - | 23 W/m² | - |
| 1787588359 | 17.22° C | 67% | 1017.2 hPa | 0 mm | - | 35 W/m² | - |
| 1787587750 | 17.22° C | 65% | 1017.3 hPa | 0 mm | - | 33 W/m² | - |
| 1787587143 | 17.78° C | 66% | 1017.4 hPa | 0 mm | - | 38 W/m² | - |
| 1787586535 | 17.78° C | 66% | 1017.6 hPa | 0 mm | - | 43 W/m² | - |
| 1787585926 | 17.78° C | 63% | 1017.6 hPa | 0 mm | - | 34 W/m² | - |
| 1787585312 | 18.33° C | 62% | 1018 hPa | 0 mm | - | 74 W/m² | - |
| 1787584711 | 18.33° C | 60% | 1017.8 hPa | 0 mm | - | 62 W/m² | - |
| 1787584103 | 18.89° C | 60% | 1017.8 hPa | 0 mm | - | 48 W/m² | - |
| 1787583479 | 18.89° C | 59% | 1018.1 hPa | 0 mm | - | 99 W/m² | - |
* Rain latest hour (hover to see other rain measurements)
** Current wind speed in m/s (hover to see current wind gust speed)